createdAt,value
2022-09-16T00:01:36.318Z,38.88
2022-09-16T00:04:03.262Z,35.28
2022-09-16T00:06:30.352Z,35.78
2022-09-16T00:09:00.979Z,37.70
2022-09-16T00:11:28.652Z,38.70
2022-09-16T00:13:55.089Z,34.85
2022-09-16T00:16:25.028Z,37.90
2022-09-16T00:18:56.156Z,38.60
2022-09-16T00:21:22.820Z,35.55
2022-09-16T00:23:49.311Z,35.92
2022-09-16T00:26:15.952Z,35.50
2022-09-16T00:28:42.738Z,38.40
2022-09-16T00:31:09.635Z,34.47
2022-09-16T00:33:36.128Z,36.72
2022-09-16T00:36:16.229Z,38.13
2022-09-16T00:38:43.596Z,37.22
2022-09-16T00:41:16.936Z,41.65
2022-09-16T00:43:51.034Z,34.90
2022-09-16T00:46:23.100Z,39.05
2022-09-16T00:48:49.970Z,39.58
2022-09-16T00:51:17.210Z,35.10
2022-09-16T00:54:02.133Z,37.33
2022-09-16T00:56:34.112Z,35.50
2022-09-16T00:59:10.812Z,35.00
2022-09-16T01:01:38.962Z,36.65
2022-09-16T01:04:22.578Z,35.05
2022-09-16T01:06:49.553Z,44.17
2022-09-16T01:09:18.066Z,35.42
2022-09-16T01:11:44.462Z,40.25
2022-09-16T01:14:40.606Z,40.08
2022-09-16T01:17:34.150Z,35.33
2022-09-16T01:20:34.656Z,36.17
2022-09-16T01:23:29.608Z,34.78
2022-09-16T01:26:15.792Z,34.97
2022-09-16T01:29:24.137Z,35.38
2022-09-16T01:32:03.761Z,35.03
2022-09-16T01:34:40.165Z,35.75
2022-09-16T01:37:38.981Z,34.47
2022-09-16T01:40:43.128Z,35.63
2022-09-16T01:43:25.946Z,34.97
2022-09-16T01:46:15.519Z,35.25
2022-09-16T01:48:57.820Z,36.13
2022-09-16T01:51:24.112Z,38.10
2022-09-16T01:54:07.134Z,35.65
2022-09-16T01:56:55.795Z,42.03
2022-09-16T01:59:39.575Z,37.33
2022-09-16T02:02:17.549Z,36.10
2022-09-16T02:04:50.437Z,41.95
2022-09-16T02:07:21.030Z,36.60
2022-09-16T02:10:06.585Z,35.05
2022-09-16T02:12:37.224Z,35.80
2022-09-16T02:15:09.547Z,35.58
2022-09-16T02:17:44.932Z,37.47
2022-09-16T02:20:20.225Z,36.90
2022-09-16T02:22:51.669Z,37.42
2022-09-16T02:25:19.542Z,37.08
2022-09-16T02:27:49.246Z,40.15
2022-09-16T02:30:19.296Z,36.13
2022-09-16T02:32:50.298Z,36.42
2022-09-16T02:35:19.623Z,36.15
2022-09-16T02:37:51.038Z,38.07
2022-09-16T02:40:24.366Z,36.05
2022-09-16T02:42:51.805Z,44.33
2022-09-16T02:45:18.487Z,36.90
2022-09-16T02:48:23.430Z,35.30
2022-09-16T02:50:59.115Z,35.13
2022-09-16T02:53:43.581Z,38.92
2022-09-16T02:56:31.025Z,35.60
2022-09-16T02:58:57.984Z,35.85
2022-09-16T03:01:25.923Z,35.42
2022-09-16T03:03:55.765Z,35.55
2022-09-16T03:06:25.295Z,36.28
2022-09-16T03:08:54.124Z,35.90
2022-09-16T03:11:31.716Z,34.95
2022-09-16T03:14:27.940Z,35.40
2022-09-16T03:17:26.789Z,35.20
2022-09-16T03:20:12.067Z,36.30
2022-09-16T03:22:44.538Z,37.67
2022-09-16T03:25:29.779Z,35.13
2022-09-16T03:28:16.915Z,37.22
2022-09-16T03:31:12.900Z,34.58
2022-09-16T03:34:05.136Z,37.97
2022-09-16T03:36:36.502Z,35.47
2022-09-16T03:39:05.836Z,35.08
2022-09-16T03:41:34.073Z,36.30
2022-09-16T03:44:04.014Z,40.97
2022-09-16T03:48:57.822Z,37.20
2022-09-16T03:51:25.981Z,36.78
2022-09-16T03:53:53.094Z,41.70
2022-09-16T03:56:20.272Z,44.92
2022-09-16T03:58:50.170Z,35.83
2022-09-16T04:01:16.862Z,38.05
2022-09-16T04:03:43.359Z,37.22
2022-09-16T04:06:09.976Z,36.65
2022-09-16T04:08:37.198Z,37.60
2022-09-16T04:11:08.034Z,34.55
2022-09-16T04:13:35.841Z,39.20
2022-09-16T04:16:04.427Z,34.85
2022-09-16T04:18:32.033Z,35.20
2022-09-16T04:20:59.984Z,36.35
2022-09-16T04:23:27.773Z,34.35
2022-09-16T04:25:59.198Z,35.25
2022-09-16T04:28:26.024Z,34.83
2022-09-16T04:30:52.540Z,36.30
2022-09-16T04:33:19.208Z,35.17
2022-09-16T04:35:45.861Z,34.58
2022-09-16T04:38:12.236Z,37.58
2022-09-16T04:40:41.289Z,37.17
2022-09-16T04:43:07.720Z,33.88
2022-09-16T04:45:34.355Z,35.13
2022-09-16T04:48:00.860Z,34.67
2022-09-16T04:50:27.664Z,34.60
2022-09-16T04:52:54.224Z,37.45
2022-09-16T04:55:23.164Z,34.63
2022-09-16T04:57:50.286Z,39.35
2022-09-16T05:00:16.851Z,35.38
2022-09-16T05:02:46.811Z,35.28
2022-09-16T05:05:13.484Z,38.90
2022-09-16T05:07:39.858Z,38.90
2022-09-16T05:10:06.861Z,34.13
2022-09-16T05:12:33.251Z,35.90
2022-09-16T05:14:59.619Z,40.42
2022-09-16T05:17:49.325Z,35.45
2022-09-16T05:20:12.787Z,33.90
2022-09-16T05:22:39.213Z,35.40
2022-09-16T05:25:06.340Z,45.78
2022-09-16T05:27:33.204Z,35.13
2022-09-16T05:29:59.598Z,36.83
2022-09-16T05:32:26.071Z,39.25
2022-09-16T05:34:52.513Z,36.85
2022-09-16T05:37:18.883Z,35.38
2022-09-16T05:39:45.320Z,35.42
2022-09-16T05:42:11.695Z,38.70
2022-09-16T05:44:38.092Z,38.40
2022-09-16T05:47:04.632Z,36.33
2022-09-16T05:49:31.109Z,34.22
2022-09-16T05:51:57.486Z,36.78
2022-09-16T05:54:25.210Z,34.67
2022-09-16T05:56:51.891Z,35.35
2022-09-16T05:59:18.481Z,40.83
2022-09-16T06:01:45.304Z,35.05
2022-09-16T06:04:13.376Z,35.60
2022-09-16T06:06:42.874Z,34.92
2022-09-16T06:09:11.956Z,39.00
2022-09-16T06:11:41.271Z,36.50
2022-09-16T06:14:08.354Z,39.85
2022-09-16T06:16:36.086Z,35.03
2022-09-16T06:19:05.346Z,40.03
2022-09-16T06:21:31.802Z,34.60
2022-09-16T06:23:58.387Z,42.90
2022-09-16T06:26:26.469Z,36.20
2022-09-16T06:28:53.419Z,35.15
2022-09-16T06:31:26.253Z,42.75
2022-09-16T06:33:54.020Z,34.80
2022-09-16T06:36:23.253Z,34.25
2022-09-16T06:38:51.206Z,33.78
2022-09-16T06:41:19.355Z,35.88
2022-09-16T06:43:46.625Z,33.15
2022-09-16T06:46:18.758Z,34.75
2022-09-16T06:48:51.044Z,34.10
2022-09-16T06:51:23.078Z,33.05
2022-09-16T06:53:51.168Z,36.88
2022-09-16T06:56:22.709Z,31.00
2022-09-16T06:58:58.736Z,32.75
2022-09-16T07:01:29.178Z,33.78
2022-09-16T07:04:04.657Z,31.15
2022-09-16T07:06:57.755Z,32.10
2022-09-16T07:09:19.869Z,31.75
2022-09-16T07:11:51.070Z,29.98
2022-09-16T07:14:17.857Z,33.05
2022-09-16T07:16:47.541Z,29.58
2022-09-16T07:19:14.685Z,30.20
2022-09-16T07:21:44.387Z,26.92
2022-09-16T07:24:14.093Z,25.48
2022-09-16T07:26:46.687Z,24.45
2022-09-16T07:29:20.653Z,23.48
2022-09-16T07:31:50.861Z,22.10
2022-09-16T07:36:57.307Z,20.58
2022-09-16T07:39:28.003Z,21.42
2022-09-16T07:41:55.553Z,23.90
2022-09-16T07:44:28.341Z,19.67
2022-09-16T07:46:56.008Z,18.77
2022-09-16T07:49:23.444Z,17.63
2022-09-16T07:51:53.643Z,18.95
2022-09-16T07:54:21.774Z,15.80
2022-09-16T07:56:53.540Z,19.75
2022-09-16T07:59:23.675Z,18.90
2022-09-16T08:01:56.143Z,20.05
2022-09-16T08:04:23.261Z,16.30
2022-09-16T08:06:53.464Z,18.60
2022-09-16T08:12:18.344Z,15.27
2022-09-16T08:14:56.917Z,16.13
2022-09-16T08:17:28.668Z,17.58
2022-09-16T08:20:02.369Z,19.13
2022-09-16T08:22:29.482Z,16.45
2022-09-16T08:24:56.655Z,19.65
2022-09-16T08:27:30.028Z,21.70
2022-09-16T08:30:00.049Z,18.08
2022-09-16T08:32:27.170Z,15.43
2022-09-16T08:35:02.353Z,15.63
2022-09-16T08:37:33.024Z,20.42
2022-09-16T08:40:06.995Z,18.00
2022-09-16T08:43:06.560Z,17.13
2022-09-16T08:46:10.927Z,17.73
2022-09-16T08:49:03.878Z,15.40
2022-09-16T08:51:39.301Z,15.57
2022-09-16T08:54:34.803Z,18.52
2022-09-16T08:57:06.932Z,20.17
2022-09-16T08:59:44.238Z,21.38
2022-09-16T09:02:36.247Z,20.67
2022-09-16T09:05:16.633Z,17.58
2022-09-16T09:07:58.804Z,17.00
2022-09-16T09:10:48.349Z,13.57
2022-09-16T09:13:43.429Z,18.65
2022-09-16T09:16:35.736Z,17.05
2022-09-16T09:19:14.646Z,13.55
2022-09-16T09:21:53.705Z,16.75
2022-09-16T09:24:49.542Z,14.52
2022-09-16T09:27:30.412Z,16.55
2022-09-16T09:30:24.312Z,15.75
2022-09-16T09:33:44.897Z,15.32
2022-09-16T09:36:37.293Z,16.58
2022-09-16T09:39:31.946Z,16.83
2022-09-16T09:42:16.234Z,14.20
2022-09-16T09:45:11.545Z,12.48
2022-09-16T09:48:06.012Z,11.05
2022-09-16T09:50:56.884Z,11.40
2022-09-16T09:53:47.809Z,14.70
2022-09-16T09:56:34.046Z,14.57
2022-09-16T09:59:11.530Z,12.57
2022-09-16T10:01:38.502Z,14.93
2022-09-16T10:04:18.085Z,15.32
2022-09-16T10:06:46.283Z,16.33
2022-09-16T10:09:31.870Z,16.15
2022-09-16T10:12:06.362Z,16.75
2022-09-16T10:14:49.784Z,16.83
2022-09-16T10:17:23.383Z,16.42
2022-09-16T10:20:07.225Z,14.70
2022-09-16T10:22:38.611Z,11.52
2022-09-16T10:25:27.741Z,12.73
2022-09-16T10:28:02.543Z,15.13
2022-09-16T10:30:32.967Z,17.35
2022-09-16T10:33:18.340Z,14.10
2022-09-16T10:35:56.964Z,15.13
2022-09-16T10:38:35.775Z,15.43
2022-09-16T10:41:20.175Z,12.40
2022-09-16T10:44:06.090Z,14.20
2022-09-16T10:46:44.433Z,16.33
2022-09-16T10:49:38.066Z,13.85
2022-09-16T10:52:19.377Z,15.80
2022-09-16T10:54:52.821Z,14.98
2022-09-16T10:57:33.483Z,17.38
2022-09-16T11:00:20.557Z,16.38
2022-09-16T11:03:33.539Z,15.88
2022-09-16T11:06:38.227Z,12.07
2022-09-16T11:09:33.268Z,13.80
2022-09-16T11:12:27.570Z,14.57
2022-09-16T11:15:08.225Z,30.30
2022-09-16T11:17:49.812Z,33.15
2022-09-16T11:20:52.214Z,37.03
2022-09-16T11:23:32.480Z,40.95
2022-09-16T11:26:09.600Z,35.58
2022-09-16T11:29:11.378Z,35.47
2022-09-16T11:32:09.720Z,33.00
2022-09-16T11:34:57.147Z,34.60
2022-09-16T11:37:35.400Z,32.30
2022-09-16T11:40:21.405Z,34.40
2022-09-16T11:43:21.855Z,32.85
2022-09-16T11:46:26.762Z,32.55
2022-09-16T11:49:47.800Z,26.75
2022-09-16T11:52:34.830Z,26.05
2022-09-16T11:56:22.091Z,17.88
2022-09-16T11:59:35.830Z,20.48
2022-09-16T12:02:28.724Z,18.05
2022-09-16T12:05:03.445Z,20.92
2022-09-16T12:08:08.786Z,15.82
2022-09-16T12:10:58.440Z,18.35
2022-09-16T12:14:06.085Z,20.35
2022-09-16T12:16:51.947Z,26.67
2022-09-16T12:19:30.294Z,43.45
2022-09-16T12:22:03.084Z,35.88
2022-09-16T12:24:29.976Z,34.40
2022-09-16T12:27:15.466Z,32.70
2022-09-16T12:29:52.380Z,35.58
2022-09-16T12:32:44.086Z,31.85
2022-09-16T12:35:16.960Z,27.83
2022-09-16T12:37:49.736Z,25.02
2022-09-16T12:40:47.680Z,31.77
2022-09-16T12:43:47.686Z,18.20
2022-09-16T12:46:35.472Z,17.20
2022-09-16T12:49:24.328Z,33.85
2022-09-16T12:52:19.932Z,38.42
2022-09-16T12:55:17.163Z,33.78
2022-09-16T12:58:10.178Z,32.13
2022-09-16T13:00:50.323Z,28.30
2022-09-16T13:03:22.239Z,28.67
2022-09-16T13:05:53.159Z,26.23
2022-09-16T13:08:34.334Z,24.92
2022-09-16T13:14:05.628Z,21.90
2022-09-16T13:16:37.460Z,22.13
2022-09-16T13:19:29.027Z,18.73
2022-09-16T13:22:00.768Z,21.13
2022-09-16T13:24:57.401Z,18.90
2022-09-16T13:27:39.486Z,20.08
2022-09-16T13:30:09.266Z,19.05
2022-09-16T13:32:50.019Z,26.95
2022-09-16T13:35:20.030Z,24.60
2022-09-16T13:37:53.629Z,29.20
2022-09-16T13:40:30.435Z,31.65
2022-09-16T13:43:18.609Z,34.67
2022-09-16T13:45:50.422Z,31.10
2022-09-16T13:48:21.572Z,31.85
2022-09-16T13:50:53.446Z,31.13
2022-09-16T13:53:31.894Z,34.22
2022-09-16T13:56:23.115Z,32.40
2022-09-16T13:59:21.754Z,31.58
2022-09-16T14:02:23.677Z,32.42
2022-09-16T14:05:47.207Z,32.20
2022-09-16T14:08:39.695Z,33.50
2022-09-16T14:11:18.322Z,30.80
2022-09-16T14:13:48.234Z,33.20
2022-09-16T14:16:20.553Z,37.92
2022-09-16T14:18:56.597Z,32.28
2022-09-16T14:21:24.544Z,31.83
2022-09-16T14:23:51.373Z,32.20
2022-09-16T14:26:23.272Z,31.08
2022-09-16T14:28:50.742Z,32.53
2022-09-16T14:31:22.704Z,33.28
2022-09-16T14:33:57.207Z,34.03
2022-09-16T14:36:30.023Z,35.60
2022-09-16T14:39:09.532Z,38.00
2022-09-16T14:41:40.485Z,34.47
2022-09-16T14:44:22.706Z,36.75
2022-09-16T14:47:07.379Z,35.55
2022-09-16T14:49:39.710Z,34.15
2022-09-16T14:52:19.643Z,37.13
2022-09-16T14:54:46.132Z,33.58
2022-09-16T14:57:20.667Z,41.50
2022-09-16T14:59:47.365Z,43.72
2022-09-16T15:02:19.563Z,35.13
2022-09-16T15:04:53.858Z,34.88
2022-09-16T15:07:29.644Z,36.25
2022-09-16T15:10:09.278Z,36.55
2022-09-16T15:12:38.785Z,34.30
2022-09-16T15:15:15.645Z,37.70
2022-09-16T15:17:42.120Z,33.72
2022-09-16T15:20:25.408Z,33.88
2022-09-16T15:22:52.807Z,34.45
2022-09-16T15:25:29.118Z,33.17
2022-09-16T15:28:16.176Z,33.53
2022-09-16T15:30:55.475Z,37.05
2022-09-16T15:33:35.950Z,36.50
2022-09-16T15:36:04.323Z,35.78
2022-09-16T15:38:33.482Z,36.70
2022-09-16T15:41:20.305Z,36.25
2022-09-16T15:43:47.073Z,37.65
2022-09-16T15:46:18.190Z,37.22
2022-09-16T15:49:11.466Z,38.03
2022-09-16T15:51:49.297Z,40.53
2022-09-16T15:54:44.721Z,35.83
2022-09-16T15:57:31.063Z,36.85
2022-09-16T16:00:14.902Z,34.55
2022-09-16T16:03:01.825Z,33.78
2022-09-16T16:05:33.177Z,34.38
2022-09-16T16:08:06.134Z,33.10
2022-09-16T16:10:36.353Z,33.60
2022-09-16T16:13:06.696Z,36.47
2022-09-16T16:15:38.815Z,35.00
2022-09-16T16:18:10.579Z,41.03
2022-09-16T16:20:38.187Z,34.15
2022-09-16T16:23:04.690Z,41.15
2022-09-16T16:25:32.086Z,32.75
2022-09-16T16:27:58.448Z,43.75
2022-09-16T16:30:24.823Z,36.63
2022-09-16T16:32:51.301Z,40.95
2022-09-16T16:35:17.821Z,34.83
2022-09-16T16:37:47.241Z,48.05
2022-09-16T16:40:15.208Z,45.60
2022-09-16T16:42:43.680Z,40.05
2022-09-16T16:45:12.851Z,42.25
2022-09-16T16:47:40.042Z,52.97
2022-09-16T16:50:06.842Z,41.95
2022-09-16T16:52:33.248Z,51.30
2022-09-16T16:55:00.635Z,51.58
2022-09-16T16:57:27.103Z,46.20
2022-09-16T16:59:53.457Z,57.88
2022-09-16T17:02:20.303Z,53.38
2022-09-16T17:04:46.733Z,54.65
2022-09-16T17:07:28.463Z,50.38
2022-09-16T17:09:57.250Z,43.75
2022-09-16T17:12:23.829Z,48.63
2022-09-16T17:14:50.495Z,40.95
2022-09-16T17:17:18.860Z,48.83
2022-09-16T17:19:45.287Z,49.90
2022-09-16T17:22:12.103Z,48.85
2022-09-16T17:24:38.590Z,50.53
2022-09-16T17:27:05.327Z,44.35
2022-09-16T17:29:32.067Z,44.58
2022-09-16T17:32:00.632Z,45.22
2022-09-16T17:34:27.093Z,62.53
2022-09-16T17:36:54.458Z,49.22
2022-09-16T17:39:22.619Z,44.05
2022-09-16T17:41:50.135Z,49.80
2022-09-16T17:44:18.107Z,56.63
2022-09-16T17:46:45.165Z,49.97
2022-09-16T17:49:18.147Z,55.67
2022-09-16T17:51:44.750Z,49.58
2022-09-16T17:54:11.677Z,49.00
2022-09-16T17:56:38.091Z,51.70
2022-09-16T17:59:04.652Z,40.92
2022-09-16T18:01:31.909Z,50.67
2022-09-16T18:03:58.460Z,48.40
2022-09-16T18:06:28.350Z,44.20
2022-09-16T18:08:55.381Z,40.63
2022-09-16T18:11:22.513Z,51.50
2022-09-16T18:13:54.311Z,51.05
2022-09-16T18:16:21.693Z,49.33
2022-09-16T18:18:52.057Z,43.85
2022-09-16T18:21:19.755Z,55.97
2022-09-16T18:23:50.515Z,48.65
2022-09-16T18:26:18.678Z,42.75
2022-09-16T18:29:08.515Z,57.03
2022-09-16T18:31:34.453Z,46.95
2022-09-16T18:34:00.863Z,45.72
2022-09-16T18:36:29.872Z,49.60
2022-09-16T18:38:57.626Z,40.83
2022-09-16T18:41:30.481Z,46.15
2022-09-16T18:44:01.969Z,42.72
2022-09-16T18:46:30.638Z,48.08
2022-09-16T18:48:58.273Z,49.15
2022-09-16T18:51:27.451Z,43.58
2022-09-16T18:53:57.699Z,51.58
2022-09-16T18:56:25.566Z,43.55
2022-09-16T18:59:17.229Z,44.97
2022-09-16T19:01:40.349Z,40.00
2022-09-16T19:04:10.139Z,43.50
2022-09-16T19:06:39.166Z,44.13
2022-09-16T19:09:08.143Z,39.15
2022-09-16T19:11:36.216Z,42.83
2022-09-16T19:14:03.469Z,43.15
2022-09-16T19:16:32.693Z,37.63
2022-09-16T19:19:00.811Z,44.13
2022-09-16T19:21:28.027Z,41.97
2022-09-16T19:24:00.104Z,43.63
2022-09-16T19:26:31.886Z,43.33
2022-09-16T19:29:01.670Z,40.97
2022-09-16T19:31:29.568Z,44.00
2022-09-16T19:33:56.280Z,40.47
2022-09-16T19:36:25.782Z,41.55
2022-09-16T19:38:53.429Z,44.72
2022-09-16T19:41:23.200Z,47.65
2022-09-16T19:43:58.198Z,46.28
2022-09-16T19:46:25.447Z,44.13
2022-09-16T19:48:52.240Z,40.47
2022-09-16T19:51:22.629Z,38.88
2022-09-16T19:53:52.895Z,42.25
2022-09-16T19:58:53.852Z,37.00
2022-09-16T20:01:24.326Z,36.50
2022-09-16T20:03:51.999Z,51.72
2022-09-16T20:06:20.943Z,39.20
2022-09-16T20:08:52.496Z,43.63
2022-09-16T20:11:20.935Z,38.55
2022-09-16T20:13:52.924Z,37.55
2022-09-16T20:16:20.954Z,43.20
2022-09-16T20:18:47.670Z,40.90
2022-09-16T20:21:17.028Z,38.38
2022-09-16T20:23:45.202Z,45.50
2022-09-16T20:26:14.927Z,49.30
2022-09-16T20:28:42.899Z,41.17
2022-09-16T20:31:13.392Z,39.03
2022-09-16T20:33:40.998Z,42.60
2022-09-16T20:36:10.800Z,51.03
2022-09-16T20:38:38.756Z,52.60
2022-09-16T20:41:07.001Z,41.22
2022-09-16T20:43:34.703Z,44.85
2022-09-16T20:46:11.481Z,41.22
2022-09-16T20:48:39.160Z,46.42
2022-09-16T20:51:11.072Z,47.83
2022-09-16T20:53:39.226Z,48.03
2022-09-16T20:56:08.141Z,43.10
2022-09-16T20:58:34.849Z,42.47
2022-09-16T21:01:24.641Z,54.13
2022-09-16T21:03:53.236Z,41.97
2022-09-16T21:06:19.939Z,41.75
2022-09-16T21:08:46.710Z,45.53
2022-09-16T21:11:15.731Z,44.58
2022-09-16T21:13:44.362Z,37.85
2022-09-16T21:16:12.941Z,40.67
2022-09-16T21:18:40.183Z,45.47
2022-09-16T21:21:11.917Z,40.42
2022-09-16T21:23:38.554Z,46.33
2022-09-16T21:26:12.978Z,50.85
2022-09-16T21:28:40.032Z,47.85
2022-09-16T21:31:12.062Z,44.20
2022-09-16T21:33:39.580Z,40.30
2022-09-16T21:36:09.165Z,45.00
2022-09-16T21:38:36.069Z,39.97
2022-09-16T21:41:05.804Z,43.80
2022-09-16T21:43:37.927Z,42.72
2022-09-16T21:46:04.868Z,54.55
2022-09-16T21:48:33.367Z,41.08
2022-09-16T21:51:05.609Z,41.63
2022-09-16T21:53:33.373Z,46.80
2022-09-16T21:56:05.493Z,45.70
2022-09-16T21:58:32.529Z,44.03
2022-09-16T22:01:06.171Z,46.53
2022-09-16T22:03:32.604Z,52.40
2022-09-16T22:05:59.119Z,57.10
2022-09-16T22:08:25.580Z,46.20
2022-09-16T22:10:52.083Z,56.20
2022-09-16T22:13:18.706Z,43.10
2022-09-16T22:15:51.659Z,48.90
2022-09-16T22:18:18.155Z,50.83
2022-09-16T22:20:44.537Z,50.10
2022-09-16T22:23:10.954Z,62.67
2022-09-16T22:25:37.413Z,48.47
2022-09-16T22:28:04.490Z,56.08
2022-09-16T22:30:33.204Z,56.85
2022-09-16T22:33:00.648Z,54.70
2022-09-16T22:35:27.383Z,59.17
2022-09-16T22:37:53.835Z,57.28
2022-09-16T22:40:20.769Z,55.72
2022-09-16T22:42:47.474Z,59.67
2022-09-16T22:45:13.916Z,57.50
2022-09-16T22:47:40.342Z,67.00
2022-09-16T22:50:07.115Z,58.35
2022-09-16T22:52:33.507Z,65.03
2022-09-16T22:54:59.893Z,56.20
2022-09-16T22:57:26.445Z,48.58
2022-09-16T22:59:52.844Z,59.28
2022-09-16T23:02:19.394Z,66.63
2022-09-16T23:04:45.810Z,55.83
2022-09-16T23:07:12.404Z,50.67
2022-09-16T23:09:38.783Z,57.00
2022-09-16T23:12:05.462Z,55.60
2022-09-16T23:14:31.838Z,63.03
2022-09-16T23:16:58.680Z,63.97
2022-09-16T23:19:25.061Z,54.85
2022-09-16T23:21:51.517Z,59.92
2022-09-16T23:24:20.614Z,62.85
2022-09-16T23:26:48.062Z,54.08
2022-09-16T23:29:15.391Z,66.78
2022-09-16T23:31:43.567Z,57.00
2022-09-16T23:34:13.049Z,58.58
2022-09-16T23:36:39.630Z,57.30
2022-09-16T23:39:07.133Z,52.63
2022-09-16T23:41:34.945Z,68.75
2022-09-16T23:44:01.676Z,56.50
2022-09-16T23:46:29.272Z,54.83
2022-09-16T23:48:55.937Z,67.00
2022-09-16T23:51:28.037Z,54.33
2022-09-16T23:53:56.917Z,58.97
2022-09-16T23:56:23.581Z,53.72
2022-09-16T23:58:51.125Z,47.45
